sensor_id;sensor_type;location;lat;lon;timestamp;P1;durP1;ratioP1;P2;durP2;ratioP2
42384;SDS011;28042;43.986;22.860;2023-04-12T00:01:47;9.38;;;5.53;;
42384;SDS011;28042;43.986;22.860;2023-04-12T00:04:13;8.85;;;5.43;;
42384;SDS011;28042;43.986;22.860;2023-04-12T00:06:40;7.38;;;5.72;;
42384;SDS011;28042;43.986;22.860;2023-04-12T00:09:13;10.23;;;4.97;;
42384;SDS011;28042;43.986;22.860;2023-04-12T00:11:42;9.15;;;5.50;;
42384;SDS011;28042;43.986;22.860;2023-04-12T00:14:07;9.55;;;5.90;;
42384;SDS011;28042;43.986;22.860;2023-04-12T00:16:33;9.93;;;6.13;;
42384;SDS011;28042;43.986;22.860;2023-04-12T00:19:00;7.90;;;5.53;;
42384;SDS011;28042;43.986;22.860;2023-04-12T00:21:25;8.35;;;6.32;;
42384;SDS011;28042;43.986;22.860;2023-04-12T00:23:53;8.60;;;6.15;;
42384;SDS011;28042;43.986;22.860;2023-04-12T00:26:19;9.90;;;6.30;;
42384;SDS011;28042;43.986;22.860;2023-04-12T00:28:49;9.57;;;5.90;;
42384;SDS011;28042;43.986;22.860;2023-04-12T00:31:15;7.90;;;6.28;;
42384;SDS011;28042;43.986;22.860;2023-04-12T00:33:40;9.10;;;5.97;;
42384;SDS011;28042;43.986;22.860;2023-04-12T00:36:06;7.93;;;5.82;;
42384;SDS011;28042;43.986;22.860;2023-04-12T00:38:32;8.48;;;6.45;;
42384;SDS011;28042;43.986;22.860;2023-04-12T00:40:57;7.35;;;5.13;;
42384;SDS011;28042;43.986;22.860;2023-04-12T00:43:23;10.15;;;6.28;;
42384;SDS011;28042;43.986;22.860;2023-04-12T00:45:51;9.30;;;6.28;;
42384;SDS011;28042;43.986;22.860;2023-04-12T00:48:18;9.05;;;5.70;;
42384;SDS011;28042;43.986;22.860;2023-04-12T00:50:44;7.97;;;6.00;;
42384;SDS011;28042;43.986;22.860;2023-04-12T00:53:11;8.15;;;6.10;;
42384;SDS011;28042;43.986;22.860;2023-04-12T00:55:44;10.15;;;5.65;;
42384;SDS011;28042;43.986;22.860;2023-04-12T00:58:10;8.98;;;5.28;;
42384;SDS011;28042;43.986;22.860;2023-04-12T01:00:38;8.70;;;5.78;;
42384;SDS011;28042;43.986;22.860;2023-04-12T01:03:03;7.85;;;5.47;;
42384;SDS011;28042;43.986;22.860;2023-04-12T01:05:29;10.45;;;5.88;;
42384;SDS011;28042;43.986;22.860;2023-04-12T01:19:25;8.07;;;5.10;;
42384;SDS011;28042;43.986;22.860;2023-04-12T01:27:56;9.13;;;5.60;;
42384;SDS011;28042;43.986;22.860;2023-04-12T01:30:25;9.60;;;5.90;;
42384;SDS011;28042;43.986;22.860;2023-04-12T01:32:53;6.82;;;5.00;;
42384;SDS011;28042;43.986;22.860;2023-04-12T01:35:21;8.23;;;6.35;;
42384;SDS011;28042;43.986;22.860;2023-04-12T01:37:52;10.05;;;5.63;;
42384;SDS011;28042;43.986;22.860;2023-04-12T01:40:18;9.80;;;5.43;;
42384;SDS011;28042;43.986;22.860;2023-04-12T01:42:45;7.70;;;5.25;;
42384;SDS011;28042;43.986;22.860;2023-04-12T01:45:10;7.93;;;5.07;;
42384;SDS011;28042;43.986;22.860;2023-04-12T01:47:36;7.90;;;5.10;;
42384;SDS011;28042;43.986;22.860;2023-04-12T01:52:31;6.38;;;4.50;;
42384;SDS011;28042;43.986;22.860;2023-04-12T01:55:04;9.13;;;5.35;;
42384;SDS011;28042;43.986;22.860;2023-04-12T01:57:31;8.40;;;5.28;;
42384;SDS011;28042;43.986;22.860;2023-04-12T01:59:58;8.88;;;5.80;;
42384;SDS011;28042;43.986;22.860;2023-04-12T02:02:26;10.88;;;5.82;;
42384;SDS011;28042;43.986;22.860;2023-04-12T02:04:53;7.35;;;5.65;;
42384;SDS011;28042;43.986;22.860;2023-04-12T02:07:19;9.23;;;5.95;;
42384;SDS011;28042;43.986;22.860;2023-04-12T02:09:45;9.02;;;5.88;;
42384;SDS011;28042;43.986;22.860;2023-04-12T02:12:11;9.30;;;6.30;;
42384;SDS011;28042;43.986;22.860;2023-04-12T02:14:37;11.00;;;6.30;;
42384;SDS011;28042;43.986;22.860;2023-04-12T02:17:03;18.08;;;7.18;;
42384;SDS011;28042;43.986;22.860;2023-04-12T02:19:29;10.20;;;6.32;;
42384;SDS011;28042;43.986;22.860;2023-04-12T02:21:55;11.85;;;7.03;;
42384;SDS011;28042;43.986;22.860;2023-04-12T02:24:20;32.60;;;8.82;;
42384;SDS011;28042;43.986;22.860;2023-04-12T02:26:46;9.82;;;7.18;;
42384;SDS011;28042;43.986;22.860;2023-04-12T02:29:14;9.10;;;6.95;;
42384;SDS011;28042;43.986;22.860;2023-04-12T02:31:39;25.80;;;6.90;;
42384;SDS011;28042;43.986;22.860;2023-04-12T02:34:05;9.65;;;7.00;;
42384;SDS011;28042;43.986;22.860;2023-04-12T02:36:31;9.40;;;7.40;;
42384;SDS011;28042;43.986;22.860;2023-04-12T02:38:57;8.82;;;6.78;;
42384;SDS011;28042;43.986;22.860;2023-04-12T02:41:22;11.30;;;6.80;;
42384;SDS011;28042;43.986;22.860;2023-04-12T02:43:48;9.75;;;7.38;;
42384;SDS011;28042;43.986;22.860;2023-04-12T02:46:16;10.48;;;7.25;;
42384;SDS011;28042;43.986;22.860;2023-04-12T02:48:44;14.82;;;7.45;;
42384;SDS011;28042;43.986;22.860;2023-04-12T02:51:10;14.98;;;7.32;;
42384;SDS011;28042;43.986;22.860;2023-04-12T02:53:35;38.78;;;22.23;;
42384;SDS011;28042;43.986;22.860;2023-04-12T02:56:02;66.05;;;59.28;;
42384;SDS011;28042;43.986;22.860;2023-04-12T02:58:29;11.93;;;8.93;;
42384;SDS011;28042;43.986;22.860;2023-04-12T03:00:54;16.83;;;8.50;;
42384;SDS011;28042;43.986;22.860;2023-04-12T03:03:21;11.77;;;7.47;;
42384;SDS011;28042;43.986;22.860;2023-04-12T03:05:50;14.55;;;11.15;;
42384;SDS011;28042;43.986;22.860;2023-04-12T03:08:17;105.57;;;50.42;;
42384;SDS011;28042;43.986;22.860;2023-04-12T03:10:43;152.73;;;76.32;;
42384;SDS011;28042;43.986;22.860;2023-04-12T03:13:08;146.20;;;76.97;;
42384;SDS011;28042;43.986;22.860;2023-04-12T03:15:34;156.68;;;101.03;;
42384;SDS011;28042;43.986;22.860;2023-04-12T03:17:59;32.50;;;19.00;;
42384;SDS011;28042;43.986;22.860;2023-04-12T03:20:25;43.10;;;33.10;;
42384;SDS011;28042;43.986;22.860;2023-04-12T03:22:52;33.67;;;22.48;;
42384;SDS011;28042;43.986;22.860;2023-04-12T03:25:17;64.88;;;34.75;;
42384;SDS011;28042;43.986;22.860;2023-04-12T03:27:43;61.28;;;45.90;;
42384;SDS011;28042;43.986;22.860;2023-04-12T03:30:09;15.32;;;12.70;;
42384;SDS011;28042;43.986;22.860;2023-04-12T03:32:38;11.38;;;9.15;;
42384;SDS011;28042;43.986;22.860;2023-04-12T03:35:04;11.63;;;8.43;;
42384;SDS011;28042;43.986;22.860;2023-04-12T03:37:32;12.07;;;7.95;;
42384;SDS011;28042;43.986;22.860;2023-04-12T03:39:57;13.40;;;9.30;;
42384;SDS011;28042;43.986;22.860;2023-04-12T03:42:23;15.73;;;8.82;;
42384;SDS011;28042;43.986;22.860;2023-04-12T03:44:49;9.13;;;5.72;;
42384;SDS011;28042;43.986;22.860;2023-04-12T03:47:16;17.17;;;13.00;;
42384;SDS011;28042;43.986;22.860;2023-04-12T03:49:42;13.05;;;8.52;;
42384;SDS011;28042;43.986;22.860;2023-04-12T03:52:07;8.25;;;5.57;;
42384;SDS011;28042;43.986;22.860;2023-04-12T03:54:33;9.65;;;6.97;;
42384;SDS011;28042;43.986;22.860;2023-04-12T03:56:58;10.88;;;5.78;;
42384;SDS011;28042;43.986;22.860;2023-04-12T03:59:25;6.85;;;4.85;;
42384;SDS011;28042;43.986;22.860;2023-04-12T04:01:51;8.10;;;5.28;;
42384;SDS011;28042;43.986;22.860;2023-04-12T04:04:17;9.20;;;4.88;;
42384;SDS011;28042;43.986;22.860;2023-04-12T04:06:42;8.73;;;4.85;;
42384;SDS011;28042;43.986;22.860;2023-04-12T04:09:08;7.22;;;5.28;;
42384;SDS011;28042;43.986;22.860;2023-04-12T04:11:33;11.65;;;5.28;;
42384;SDS011;28042;43.986;22.860;2023-04-12T04:13:59;7.10;;;3.50;;
42384;SDS011;28042;43.986;22.860;2023-04-12T04:16:25;8.93;;;4.78;;
42384;SDS011;28042;43.986;22.860;2023-04-12T04:18:51;10.88;;;3.58;;
42384;SDS011;28042;43.986;22.860;2023-04-12T04:21:16;6.97;;;3.20;;
42384;SDS011;28042;43.986;22.860;2023-04-12T04:23:41;7.25;;;3.85;;
42384;SDS011;28042;43.986;22.860;2023-04-12T04:26:12;15.50;;;4.40;;
42384;SDS011;28042;43.986;22.860;2023-04-12T04:28:38;6.38;;;4.05;;
42384;SDS011;28042;43.986;22.860;2023-04-12T04:31:06;11.27;;;4.43;;
42384;SDS011;28042;43.986;22.860;2023-04-12T04:33:34;7.38;;;2.90;;
42384;SDS011;28042;43.986;22.860;2023-04-12T04:36:00;9.48;;;3.20;;
42384;SDS011;28042;43.986;22.860;2023-04-12T04:38:28;5.55;;;2.38;;
42384;SDS011;28042;43.986;22.860;2023-04-12T04:40:56;9.00;;;2.85;;
42384;SDS011;28042;43.986;22.860;2023-04-12T04:43:22;8.25;;;2.72;;
42384;SDS011;28042;43.986;22.860;2023-04-12T04:45:50;6.10;;;3.20;;
42384;SDS011;28042;43.986;22.860;2023-04-12T04:48:18;21.73;;;3.90;;
42384;SDS011;28042;43.986;22.860;2023-04-12T04:50:45;15.10;;;5.65;;
42384;SDS011;28042;43.986;22.860;2023-04-12T04:53:11;18.60;;;6.07;;
42384;SDS011;28042;43.986;22.860;2023-04-12T04:55:37;8.45;;;3.50;;
42384;SDS011;28042;43.986;22.860;2023-04-12T04:58:02;17.35;;;7.15;;
42384;SDS011;28042;43.986;22.860;2023-04-12T05:00:29;11.88;;;3.05;;
42384;SDS011;28042;43.986;22.860;2023-04-12T05:02:54;9.05;;;2.75;;
42384;SDS011;28042;43.986;22.860;2023-04-12T05:05:19;13.45;;;5.80;;
42384;SDS011;28042;43.986;22.860;2023-04-12T05:07:48;5.15;;;3.30;;
42384;SDS011;28042;43.986;22.860;2023-04-12T05:10:13;14.32;;;4.32;;
42384;SDS011;28042;43.986;22.860;2023-04-12T05:12:39;8.20;;;3.53;;
42384;SDS011;28042;43.986;22.860;2023-04-12T05:15:05;4.68;;;2.92;;
42384;SDS011;28042;43.986;22.860;2023-04-12T05:17:31;12.82;;;3.10;;
42384;SDS011;28042;43.986;22.860;2023-04-12T05:19:58;8.80;;;3.35;;
42384;SDS011;28042;43.986;22.860;2023-04-12T05:22:24;9.75;;;3.17;;
42384;SDS011;28042;43.986;22.860;2023-04-12T05:24:51;8.05;;;3.38;;
42384;SDS011;28042;43.986;22.860;2023-04-12T05:27:16;10.60;;;4.40;;
42384;SDS011;28042;43.986;22.860;2023-04-12T05:29:43;6.55;;;3.78;;
42384;SDS011;28042;43.986;22.860;2023-04-12T05:32:09;28.25;;;3.50;;
42384;SDS011;28042;43.986;22.860;2023-04-12T05:34:34;7.53;;;3.70;;
42384;SDS011;28042;43.986;22.860;2023-04-12T05:37:01;12.15;;;4.35;;
42384;SDS011;28042;43.986;22.860;2023-04-12T05:39:28;8.23;;;3.87;;
42384;SDS011;28042;43.986;22.860;2023-04-12T05:41:53;15.43;;;4.05;;
42384;SDS011;28042;43.986;22.860;2023-04-12T05:44:19;7.05;;;3.88;;
42384;SDS011;28042;43.986;22.860;2023-04-12T05:46:44;10.88;;;2.47;;
42384;SDS011;28042;43.986;22.860;2023-04-12T05:49:10;8.13;;;3.63;;
42384;SDS011;28042;43.986;22.860;2023-04-12T05:51:36;10.95;;;4.72;;
42384;SDS011;28042;43.986;22.860;2023-04-12T05:54:01;9.75;;;4.68;;
42384;SDS011;28042;43.986;22.860;2023-04-12T05:56:30;6.72;;;3.35;;
42384;SDS011;28042;43.986;22.860;2023-04-12T05:58:56;6.65;;;3.22;;
42384;SDS011;28042;43.986;22.860;2023-04-12T06:01:22;20.30;;;4.85;;
42384;SDS011;28042;43.986;22.860;2023-04-12T06:03:54;8.05;;;3.78;;
42384;SDS011;28042;43.986;22.860;2023-04-12T06:06:20;10.02;;;3.20;;
42384;SDS011;28042;43.986;22.860;2023-04-12T06:08:45;11.82;;;4.65;;
42384;SDS011;28042;43.986;22.860;2023-04-12T06:11:11;9.73;;;3.83;;
42384;SDS011;28042;43.986;22.860;2023-04-12T06:13:37;10.70;;;4.40;;
42384;SDS011;28042;43.986;22.860;2023-04-12T06:16:03;16.85;;;3.72;;
42384;SDS011;28042;43.986;22.860;2023-04-12T06:18:29;9.20;;;3.00;;
42384;SDS011;28042;43.986;22.860;2023-04-12T06:20:55;12.57;;;3.42;;
42384;SDS011;28042;43.986;22.860;2023-04-12T06:23:21;8.73;;;2.67;;
42384;SDS011;28042;43.986;22.860;2023-04-12T06:25:47;15.80;;;4.18;;
42384;SDS011;28042;43.986;22.860;2023-04-12T06:28:13;12.48;;;3.83;;
42384;SDS011;28042;43.986;22.860;2023-04-12T06:30:38;11.40;;;3.28;;
42384;SDS011;28042;43.986;22.860;2023-04-12T06:33:04;46.92;;;27.50;;
42384;SDS011;28042;43.986;22.860;2023-04-12T06:35:29;39.78;;;18.90;;
42384;SDS011;28042;43.986;22.860;2023-04-12T06:37:55;17.25;;;5.00;;
42384;SDS011;28042;43.986;22.860;2023-04-12T06:40:20;11.48;;;3.40;;
42384;SDS011;28042;43.986;22.860;2023-04-12T06:42:46;16.23;;;3.47;;
42384;SDS011;28042;43.986;22.860;2023-04-12T06:45:11;27.00;;;3.80;;
42384;SDS011;28042;43.986;22.860;2023-04-12T06:47:37;9.90;;;2.25;;
42384;SDS011;28042;43.986;22.860;2023-04-12T06:50:02;16.90;;;2.50;;
42384;SDS011;28042;43.986;22.860;2023-04-12T06:52:30;36.47;;;4.25;;
42384;SDS011;28042;43.986;22.860;2023-04-12T06:54:56;47.42;;;3.78;;
42384;SDS011;28042;43.986;22.860;2023-04-12T06:57:22;32.20;;;4.13;;
42384;SDS011;28042;43.986;22.860;2023-04-12T06:59:48;19.30;;;3.70;;
42384;SDS011;28042;43.986;22.860;2023-04-12T07:02:14;8.68;;;2.13;;
42384;SDS011;28042;43.986;22.860;2023-04-12T07:04:39;27.02;;;5.18;;
42384;SDS011;28042;43.986;22.860;2023-04-12T07:07:05;11.00;;;2.25;;
42384;SDS011;28042;43.986;22.860;2023-04-12T07:09:30;13.23;;;1.77;;
42384;SDS011;28042;43.986;22.860;2023-04-12T07:11:56;8.35;;;3.35;;
42384;SDS011;28042;43.986;22.860;2023-04-12T07:14:22;14.00;;;1.65;;
42384;SDS011;28042;43.986;22.860;2023-04-12T07:16:48;9.02;;;3.33;;
42384;SDS011;28042;43.986;22.860;2023-04-12T07:19:14;13.05;;;3.58;;
42384;SDS011;28042;43.986;22.860;2023-04-12T07:21:40;10.32;;;2.08;;
42384;SDS011;28042;43.986;22.860;2023-04-12T07:24:06;6.35;;;3.20;;
42384;SDS011;28042;43.986;22.860;2023-04-12T07:26:31;13.65;;;2.88;;
42384;SDS011;28042;43.986;22.860;2023-04-12T07:28:57;8.82;;;2.97;;
42384;SDS011;28042;43.986;22.860;2023-04-12T07:31:22;12.35;;;2.60;;
42384;SDS011;28042;43.986;22.860;2023-04-12T07:33:48;15.27;;;3.35;;
42384;SDS011;28042;43.986;22.860;2023-04-12T07:36:13;15.60;;;3.33;;
42384;SDS011;28042;43.986;22.860;2023-04-12T07:38:40;15.88;;;3.60;;
42384;SDS011;28042;43.986;22.860;2023-04-12T07:41:06;12.57;;;3.45;;
42384;SDS011;28042;43.986;22.860;2023-04-12T07:43:32;18.90;;;10.70;;
42384;SDS011;28042;43.986;22.860;2023-04-12T07:45:57;15.60;;;2.40;;
42384;SDS011;28042;43.986;22.860;2023-04-12T07:48:23;8.02;;;3.53;;
42384;SDS011;28042;43.986;22.860;2023-04-12T07:50:49;11.35;;;4.20;;
42384;SDS011;28042;43.986;22.860;2023-04-12T07:53:19;10.18;;;3.10;;
42384;SDS011;28042;43.986;22.860;2023-04-12T07:55:46;13.18;;;2.58;;
42384;SDS011;28042;43.986;22.860;2023-04-12T07:58:13;15.85;;;3.63;;
42384;SDS011;28042;43.986;22.860;2023-04-12T08:00:40;13.02;;;2.85;;
42384;SDS011;28042;43.986;22.860;2023-04-12T08:03:05;13.82;;;4.03;;
42384;SDS011;28042;43.986;22.860;2023-04-12T08:05:31;27.08;;;5.40;;
42384;SDS011;28042;43.986;22.860;2023-04-12T08:07:56;10.90;;;2.20;;
42384;SDS011;28042;43.986;22.860;2023-04-12T08:10:22;32.53;;;3.60;;
42384;SDS011;28042;43.986;22.860;2023-04-12T08:12:48;6.15;;;2.20;;
42384;SDS011;28042;43.986;22.860;2023-04-12T08:15:14;14.93;;;3.47;;
42384;SDS011;28042;43.986;22.860;2023-04-12T08:17:39;12.27;;;2.65;;
42384;SDS011;28042;43.986;22.860;2023-04-12T08:20:07;7.10;;;2.20;;
42384;SDS011;28042;43.986;22.860;2023-04-12T08:22:33;11.77;;;2.38;;
42384;SDS011;28042;43.986;22.860;2023-04-12T08:24:59;8.77;;;3.05;;
42384;SDS011;28042;43.986;22.860;2023-04-12T08:27:25;37.60;;;4.47;;
42384;SDS011;28042;43.986;22.860;2023-04-12T08:29:51;12.73;;;3.47;;
42384;SDS011;28042;43.986;22.860;2023-04-12T08:32:17;43.60;;;4.75;;
42384;SDS011;28042;43.986;22.860;2023-04-12T08:34:42;43.25;;;5.28;;
42384;SDS011;28042;43.986;22.860;2023-04-12T08:37:08;14.57;;;2.40;;
42384;SDS011;28042;43.986;22.860;2023-04-12T08:39:33;10.13;;;3.15;;
42384;SDS011;28042;43.986;22.860;2023-04-12T08:41:59;42.25;;;4.38;;
42384;SDS011;28042;43.986;22.860;2023-04-12T08:44:35;6.97;;;2.30;;
42384;SDS011;28042;43.986;22.860;2023-04-12T08:47:04;20.15;;;3.53;;
42384;SDS011;28042;43.986;22.860;2023-04-12T08:49:31;46.30;;;5.93;;
42384;SDS011;28042;43.986;22.860;2023-04-12T08:52:05;7.57;;;3.80;;
42384;SDS011;28042;43.986;22.860;2023-04-12T08:54:32;18.67;;;3.30;;
42384;SDS011;28042;43.986;22.860;2023-04-12T08:57:03;12.67;;;3.80;;
42384;SDS011;28042;43.986;22.860;2023-04-12T08:59:36;26.80;;;4.75;;
42384;SDS011;28042;43.986;22.860;2023-04-12T09:02:03;39.28;;;3.97;;
42384;SDS011;28042;43.986;22.860;2023-04-12T09:04:29;20.98;;;3.33;;
42384;SDS011;28042;43.986;22.860;2023-04-12T09:06:55;50.05;;;5.65;;
42384;SDS011;28042;43.986;22.860;2023-04-12T09:12:11;49.53;;;5.85;;
42384;SDS011;28042;43.986;22.860;2023-04-12T09:14:38;11.50;;;2.75;;
42384;SDS011;28042;43.986;22.860;2023-04-12T09:17:17;15.35;;;3.67;;
42384;SDS011;28042;43.986;22.860;2023-04-12T09:19:48;18.63;;;4.38;;
42384;SDS011;28042;43.986;22.860;2023-04-12T09:22:14;7.15;;;2.55;;
42384;SDS011;28042;43.986;22.860;2023-04-12T09:24:46;23.50;;;6.22;;
42384;SDS011;28042;43.986;22.860;2023-04-12T09:27:14;9.20;;;3.08;;
42384;SDS011;28042;43.986;22.860;2023-04-12T09:29:40;16.95;;;11.77;;
42384;SDS011;28042;43.986;22.860;2023-04-12T09:32:07;19.77;;;6.50;;
42384;SDS011;28042;43.986;22.860;2023-04-12T09:34:34;20.02;;;9.45;;
42384;SDS011;28042;43.986;22.860;2023-04-12T09:40:08;12.52;;;5.68;;
42384;SDS011;28042;43.986;22.860;2023-04-12T09:42:35;13.95;;;4.75;;
42384;SDS011;28042;43.986;22.860;2023-04-12T09:45:19;11.15;;;3.97;;
42384;SDS011;28042;43.986;22.860;2023-04-12T09:47:49;7.70;;;3.33;;
42384;SDS011;28042;43.986;22.860;2023-04-12T09:53:13;4.50;;;3.03;;
42384;SDS011;28042;43.986;22.860;2023-04-12T09:55:41;96.70;;;8.05;;
42384;SDS011;28042;43.986;22.860;2023-04-12T09:58:07;12.60;;;3.47;;
42384;SDS011;28042;43.986;22.860;2023-04-12T10:03:01;22.92;;;4.18;;
42384;SDS011;28042;43.986;22.860;2023-04-12T10:05:27;17.42;;;3.03;;
42384;SDS011;28042;43.986;22.860;2023-04-12T10:07:52;11.95;;;3.05;;
42384;SDS011;28042;43.986;22.860;2023-04-12T10:10:19;17.65;;;3.38;;
42384;SDS011;28042;43.986;22.860;2023-04-12T10:12:47;20.90;;;3.05;;
42384;SDS011;28042;43.986;22.860;2023-04-12T10:15:13;18.63;;;3.53;;
42384;SDS011;28042;43.986;22.860;2023-04-12T10:20:14;7.72;;;3.05;;
42384;SDS011;28042;43.986;22.860;2023-04-12T10:22:42;25.50;;;4.18;;
42384;SDS011;28042;43.986;22.860;2023-04-12T10:25:12;25.73;;;4.28;;
42384;SDS011;28042;43.986;22.860;2023-04-12T10:27:39;19.00;;;4.13;;
42384;SDS011;28042;43.986;22.860;2023-04-12T10:35:56;4.68;;;2.40;;
42384;SDS011;28042;43.986;22.860;2023-04-12T10:38:44;9.38;;;2.40;;
42384;SDS011;28042;43.986;22.860;2023-04-12T10:41:12;6.03;;;2.92;;
42384;SDS011;28042;43.986;22.860;2023-04-12T10:43:50;10.27;;;3.28;;
42384;SDS011;28042;43.986;22.860;2023-04-12T10:51:35;3.40;;;1.65;;
42384;SDS011;28042;43.986;22.860;2023-04-12T10:58:57;12.55;;;1.95;;
42384;SDS011;28042;43.986;22.860;2023-04-12T11:01:27;50.38;;;5.88;;
42384;SDS011;28042;43.986;22.860;2023-04-12T11:07:00;10.82;;;1.90;;
42384;SDS011;28042;43.986;22.860;2023-04-12T11:09:43;11.65;;;1.90;;
42384;SDS011;28042;43.986;22.860;2023-04-12T11:19:58;4.90;;;1.50;;
42384;SDS011;28042;43.986;22.860;2023-04-12T11:22:26;24.50;;;3.75;;
42384;SDS011;28042;43.986;22.860;2023-04-12T11:24:54;35.95;;;4.00;;
42384;SDS011;28042;43.986;22.860;2023-04-12T11:27:22;10.55;;;1.80;;
42384;SDS011;28042;43.986;22.860;2023-04-12T11:29:49;8.65;;;2.03;;
42384;SDS011;28042;43.986;22.860;2023-04-12T11:32:16;6.35;;;1.50;;
42384;SDS011;28042;43.986;22.860;2023-04-12T11:34:43;21.98;;;2.05;;
42384;SDS011;28042;43.986;22.860;2023-04-12T11:37:11;6.00;;;1.45;;
42384;SDS011;28042;43.986;22.860;2023-04-12T11:39:39;26.45;;;2.88;;
42384;SDS011;28042;43.986;22.860;2023-04-12T11:42:11;10.63;;;1.70;;
42384;SDS011;28042;43.986;22.860;2023-04-12T11:44:39;5.35;;;1.42;;
42384;SDS011;28042;43.986;22.860;2023-04-12T11:47:11;6.30;;;1.67;;
42384;SDS011;28042;43.986;22.860;2023-04-12T11:49:48;6.00;;;1.58;;
42384;SDS011;28042;43.986;22.860;2023-04-12T11:52:15;4.57;;;1.35;;
42384;SDS011;28042;43.986;22.860;2023-04-12T11:54:42;8.30;;;1.40;;
42384;SDS011;28042;43.986;22.860;2023-04-12T11:57:12;12.82;;;2.38;;
42384;SDS011;28042;43.986;22.860;2023-04-12T11:59:41;4.88;;;1.70;;
42384;SDS011;28042;43.986;22.860;2023-04-12T12:02:08;15.32;;;2.25;;
42384;SDS011;28042;43.986;22.860;2023-04-12T12:04:34;12.13;;;1.83;;
42384;SDS011;28042;43.986;22.860;2023-04-12T12:06:59;9.07;;;1.52;;
42384;SDS011;28042;43.986;22.860;2023-04-12T12:09:25;11.65;;;1.63;;
42384;SDS011;28042;43.986;22.860;2023-04-12T12:11:51;11.90;;;1.67;;
42384;SDS011;28042;43.986;22.860;2023-04-12T12:14:18;37.00;;;3.78;;
42384;SDS011;28042;43.986;22.860;2023-04-12T12:16:52;23.10;;;2.80;;
42384;SDS011;28042;43.986;22.860;2023-04-12T12:19:26;10.63;;;1.48;;
42384;SDS011;28042;43.986;22.860;2023-04-12T12:21:53;9.95;;;3.33;;
42384;SDS011;28042;43.986;22.860;2023-04-12T12:24:18;5.30;;;1.35;;
42384;SDS011;28042;43.986;22.860;2023-04-12T12:26:47;4.47;;;1.00;;
42384;SDS011;28042;43.986;22.860;2023-04-12T12:31:46;14.00;;;1.73;;
42384;SDS011;28042;43.986;22.860;2023-04-12T12:34:13;2.35;;;0.90;;
42384;SDS011;28042;43.986;22.860;2023-04-12T12:36:43;6.40;;;1.60;;
42384;SDS011;28042;43.986;22.860;2023-04-12T12:39:19;59.00;;;5.50;;
42384;SDS011;28042;43.986;22.860;2023-04-12T12:41:51;30.45;;;3.08;;
42384;SDS011;28042;43.986;22.860;2023-04-12T12:44:18;8.50;;;1.00;;
42384;SDS011;28042;43.986;22.860;2023-04-12T12:46:44;2.08;;;1.02;;
42384;SDS011;28042;43.986;22.860;2023-04-12T12:49:09;7.68;;;1.25;;
42384;SDS011;28042;43.986;22.860;2023-04-12T12:51:35;23.10;;;2.72;;
42384;SDS011;28042;43.986;22.860;2023-04-12T12:54:00;4.30;;;1.30;;
42384;SDS011;28042;43.986;22.860;2023-04-12T12:56:26;10.20;;;1.55;;
42384;SDS011;28042;43.986;22.860;2023-04-12T12:58:51;20.45;;;1.90;;
42384;SDS011;28042;43.986;22.860;2023-04-12T13:01:17;2.00;;;1.25;;
42384;SDS011;28042;43.986;22.860;2023-04-12T13:03:42;31.13;;;2.38;;
42384;SDS011;28042;43.986;22.860;2023-04-12T13:06:08;7.15;;;1.48;;
42384;SDS011;28042;43.986;22.860;2023-04-12T13:08:33;6.63;;;1.10;;
42384;SDS011;28042;43.986;22.860;2023-04-12T13:11:01;8.52;;;1.88;;
42384;SDS011;28042;43.986;22.860;2023-04-12T13:13:27;21.13;;;2.38;;
42384;SDS011;28042;43.986;22.860;2023-04-12T13:15:52;5.22;;;1.35;;
42384;SDS011;28042;43.986;22.860;2023-04-12T13:18:18;11.43;;;1.95;;
42384;SDS011;28042;43.986;22.860;2023-04-12T13:20:44;15.20;;;1.80;;
42384;SDS011;28042;43.986;22.860;2023-04-12T13:23:10;7.45;;;1.27;;
42384;SDS011;28042;43.986;22.860;2023-04-12T13:25:35;7.55;;;1.25;;
42384;SDS011;28042;43.986;22.860;2023-04-12T13:28:01;10.93;;;1.50;;
42384;SDS011;28042;43.986;22.860;2023-04-12T13:30:26;3.72;;;1.50;;
42384;SDS011;28042;43.986;22.860;2023-04-12T13:32:52;5.40;;;1.20;;
42384;SDS011;28042;43.986;22.860;2023-04-12T13:35:18;6.85;;;1.48;;
42384;SDS011;28042;43.986;22.860;2023-04-12T13:37:43;2.85;;;1.50;;
42384;SDS011;28042;43.986;22.860;2023-04-12T13:40:09;5.53;;;1.63;;
42384;SDS011;28042;43.986;22.860;2023-04-12T13:42:35;26.27;;;2.90;;
42384;SDS011;28042;43.986;22.860;2023-04-12T13:45:00;3.92;;;1.13;;
42384;SDS011;28042;43.986;22.860;2023-04-12T13:47:26;4.43;;;1.52;;
42384;SDS011;28042;43.986;22.860;2023-04-12T13:49:52;6.03;;;1.35;;
42384;SDS011;28042;43.986;22.860;2023-04-12T13:52:20;8.73;;;1.35;;
42384;SDS011;28042;43.986;22.860;2023-04-12T13:54:46;1.90;;;1.05;;
42384;SDS011;28042;43.986;22.860;2023-04-12T13:57:11;14.98;;;2.03;;
42384;SDS011;28042;43.986;22.860;2023-04-12T13:59:37;6.43;;;1.05;;
42384;SDS011;28042;43.986;22.860;2023-04-12T14:02:02;8.38;;;1.58;;
42384;SDS011;28042;43.986;22.860;2023-04-12T14:04:29;3.72;;;1.30;;
42384;SDS011;28042;43.986;22.860;2023-04-12T14:06:55;1.90;;;0.93;;
42384;SDS011;28042;43.986;22.860;2023-04-12T14:09:22;4.53;;;1.48;;
42384;SDS011;28042;43.986;22.860;2023-04-12T14:11:49;5.85;;;1.42;;
42384;SDS011;28042;43.986;22.860;2023-04-12T14:14:15;16.45;;;1.27;;
42384;SDS011;28042;43.986;22.860;2023-04-12T14:16:40;2.85;;;1.20;;
42384;SDS011;28042;43.986;22.860;2023-04-12T14:19:06;3.60;;;1.27;;
42384;SDS011;28042;43.986;22.860;2023-04-12T14:21:31;3.50;;;1.27;;
42384;SDS011;28042;43.986;22.860;2023-04-12T14:23:57;1.40;;;0.98;;
42384;SDS011;28042;43.986;22.860;2023-04-12T14:26:22;19.65;;;2.50;;
42384;SDS011;28042;43.986;22.860;2023-04-12T14:28:48;1.90;;;1.30;;
42384;SDS011;28042;43.986;22.860;2023-04-12T14:31:14;5.43;;;1.00;;
42384;SDS011;28042;43.986;22.860;2023-04-12T14:33:40;3.55;;;0.90;;
42384;SDS011;28042;43.986;22.860;2023-04-12T14:36:06;1.88;;;0.93;;
42384;SDS011;28042;43.986;22.860;2023-04-12T14:38:32;8.38;;;1.35;;
42384;SDS011;28042;43.986;22.860;2023-04-12T14:40:58;2.35;;;0.98;;
42384;SDS011;28042;43.986;22.860;2023-04-12T14:43:24;8.07;;;1.08;;
42384;SDS011;28042;43.986;22.860;2023-04-12T14:45:50;4.95;;;1.20;;
42384;SDS011;28042;43.986;22.860;2023-04-12T14:48:15;1.45;;;0.93;;
42384;SDS011;28042;43.986;22.860;2023-04-12T14:50:41;6.20;;;1.10;;
42384;SDS011;28042;43.986;22.860;2023-04-12T14:53:06;3.45;;;1.38;;
42384;SDS011;28042;43.986;22.860;2023-04-12T14:55:33;6.10;;;1.63;;
42384;SDS011;28042;43.986;22.860;2023-04-12T14:57:59;8.45;;;1.63;;
42384;SDS011;28042;43.986;22.860;2023-04-12T15:00:25;4.28;;;1.20;;
42384;SDS011;28042;43.986;22.860;2023-04-12T15:02:53;4.40;;;1.48;;
42384;SDS011;28042;43.986;22.860;2023-04-12T15:05:19;2.85;;;1.15;;
42384;SDS011;28042;43.986;22.860;2023-04-12T15:07:44;1.90;;;0.98;;
42384;SDS011;28042;43.986;22.860;2023-04-12T15:10:10;6.85;;;1.20;;
42384;SDS011;28042;43.986;22.860;2023-04-12T15:12:38;5.22;;;1.25;;
42384;SDS011;28042;43.986;22.860;2023-04-12T15:15:04;4.80;;;1.42;;
42384;SDS011;28042;43.986;22.860;2023-04-12T15:17:30;2.53;;;1.23;;
42384;SDS011;28042;43.986;22.860;2023-04-12T15:19:56;10.43;;;1.67;;
42384;SDS011;28042;43.986;22.860;2023-04-12T15:22:22;3.22;;;1.17;;
42384;SDS011;28042;43.986;22.860;2023-04-12T15:24:50;1.45;;;1.02;;
42384;SDS011;28042;43.986;22.860;2023-04-12T15:27:15;1.38;;;1.13;;
42384;SDS011;28042;43.986;22.860;2023-04-12T15:29:41;4.03;;;1.40;;